Terminal Aerodrome Forecast
Issued by NWS Tulsa, OK

Home | Current Version | Previous Version | Text Only | Print | Product List | Glossary On
Versions: 1 2 3 4 5 6 7 8 9 10 11 12 13 14 15 16
780
FTUS44 KTSA 050901 AAA
TAFTUL
TAF AMD
KTUL 050901Z 0509/0606 15003KT P6SM BKN250
      TEMPO 0509/0513 3SM BR BKN003
     FM051400 VRB02KT 5SM BR BKN200
     FM051800 15008KT P6SM SCT040 BKN120
     FM052200 16010KT P6SM SCT030 BKN150=

USA.gov is the U.S. government's official web portal to all federal, state and local government web resources and services.